Time;durP1;ratioP1;P1;durP2;ratioP2;P2;SDS_P1;SDS_P2;PMS_P1;PMS_P2;Temp;Humidity;BMP_temperature;BMP_pressure;BME280_temperature;BME280_humidity;BME280_pressure;Samples;Min_cycle;Max_cycle;Signal;HPM_P1;HPM_P2
2022/10/28 00:00:29;;;;;;;;;1.75;1.75;22.00;99.90;;;;;;4979548;28;8890;-59
2022/10/28 00:03:03;;;;;;;;;1.00;1.00;22.00;99.90;;;;;;4999261;28;8815;-58
2022/10/28 00:05:34;;;;;;;;;0.00;0.00;22.00;99.90;;;;;;5032901;28;9558;-58
2022/10/28 00:08:05;;;;;;;;;1.00;1.00;22.00;99.90;;;;;;5013685;28;8994;-65
2022/10/28 00:10:42;;;;;;;;;1.00;1.00;22.10;99.90;;;;;;5015914;28;8836;-59
2022/10/28 00:13:12;;;;;;;;;1.00;1.00;22.10;99.90;;;;;;5011097;28;9201;-60
2022/10/28 00:15:43;;;;;;;;;1.00;1.00;22.10;99.90;;;;;;5011985;28;8823;-61
2022/10/28 00:18:12;;;;;;;;;1.00;1.00;22.10;99.90;;;;;;5010186;28;8846;-62
2022/10/28 00:20:43;;;;;;;;;1.00;1.00;22.00;99.90;;;;;;5015404;28;8835;-63
2022/10/28 00:23:17;;;;;;;;;1.00;1.00;22.00;99.90;;;;;;5009752;28;8881;-61
2022/10/28 00:25:48;;;;;;;;;1.00;1.00;22.10;99.90;;;;;;5011952;28;8847;-60
2022/10/28 00:28:21;;;;;;;;;1.00;1.00;22.20;99.90;;;;;;5007871;28;8846;-61
2022/10/28 00:30:51;;;;;;;;;1.00;1.00;22.10;99.90;;;;;;5017899;28;8835;-66
2022/10/28 00:33:21;;;;;;;;;0.50;0.50;22.10;99.90;;;;;;5012398;28;8839;-66
2022/10/28 00:35:56;;;;;;;;;1.00;1.00;22.00;99.90;;;;;;5016892;28;9376;-68
2022/10/28 00:38:31;;;;;;;;;3.00;1.25;22.00;99.90;;;;;;4998280;28;9562;-67
2022/10/28 00:41:00;;;;;;;;;1.00;1.00;22.00;99.90;;;;;;5001786;28;8820;-67
2022/10/28 00:43:49;;;;;;;;;1.00;1.00;22.00;99.90;;;;;;5016433;28;8848;-68
2022/10/28 00:46:41;;;;;;;;;1.00;1.00;21.90;99.90;;;;;;5000568;28;9566;-61
2022/10/28 00:49:28;;;;;;;;;1.00;1.00;22.00;99.90;;;;;;5014882;28;8866;-60
2022/10/28 00:52:08;;;;;;;;;1.00;1.00;22.00;99.90;;;;;;5012999;28;8863;-65
2022/10/28 00:54:44;;;;;;;;;0.50;0.50;22.10;99.90;;;;;;5009853;28;8834;-60
2022/10/28 00:57:23;;;;;;;;;1.00;1.00;22.00;99.90;;;;;;5015394;28;8823;-61
2022/10/28 00:59:54;;;;;;;;;0.75;0.75;22.00;99.90;;;;;;5004783;28;9559;-61
2022/10/28 01:02:26;;;;;;;;;1.00;1.00;22.10;99.90;;;;;;5017449;28;8839;-67
2022/10/28 01:05:00;;;;;;;;;1.25;1.25;22.00;99.90;;;;;;4999229;28;8827;-67
2022/10/28 01:07:32;;;;;;;;;0.00;0.00;21.90;99.90;;;;;;4981536;28;8903;-61
2022/10/28 01:10:06;;;;;;;;;2.00;2.00;22.00;99.90;;;;;;4982683;28;8829;-61
2022/10/28 01:13:02;;;;;;;;;0.00;0.00;21.90;99.90;;;;;;4978276;28;8875;-61
2022/10/28 01:16:04;;;;;;;;;1.00;1.00;21.90;99.90;;;;;;4980699;28;8848;-67
2022/10/28 01:18:43;;;;;;;;;2.00;2.00;21.90;99.90;;;;;;4979278;28;8848;-69
2022/10/28 01:21:59;;;;;;;;;1.00;1.00;21.80;99.90;;;;;;4975888;28;8875;-67
2022/10/28 01:25:03;;;;;;;;;1.00;1.00;21.90;99.90;;;;;;4976923;28;8868;-66
2022/10/28 01:27:57;;;;;;;;;0.00;0.00;21.80;99.90;;;;;;4977982;28;8852;-61
2022/10/28 01:31:01;;;;;;;;;0.75;0.75;21.70;99.90;;;;;;4972161;28;8886;-62
2022/10/28 01:33:51;;;;;;;;;0.00;0.00;21.70;99.90;;;;;;4960548;28;8845;-61
2022/10/28 01:36:56;;;;;;;;;0.25;0.25;21.70;99.90;;;;;;4990622;28;8875;-60
2022/10/28 01:39:49;;;;;;;;;1.00;1.00;21.70;99.90;;;;;;4971479;28;8856;-61
2022/10/28 01:42:27;;;;;;;;;1.00;1.00;21.70;99.90;;;;;;4989656;28;9003;-68
2022/10/28 01:45:38;;;;;;;;;1.00;1.00;21.70;99.90;;;;;;4980384;28;8875;-68
2022/10/28 01:48:15;;;;;;;;;0.00;0.00;21.70;99.90;;;;;;4978080;28;8856;-62
2022/10/28 01:50:59;;;;;;;;;0.75;0.75;21.70;99.90;;;;;;4978578;28;8879;-66
2022/10/28 01:53:36;;;;;;;;;0.50;0.50;21.60;99.90;;;;;;4978232;28;8844;-66
2022/10/28 01:56:13;;;;;;;;;0.75;0.75;21.60;99.90;;;;;;4976692;28;8888;-61
2022/10/28 01:58:50;;;;;;;;;0.00;0.00;21.60;99.90;;;;;;4977403;28;8844;-60
2022/10/28 02:01:24;;;;;;;;;0.75;0.75;21.60;99.90;;;;;;4976293;28;9246;-60
2022/10/28 02:03:56;;;;;;;;;1.00;1.00;21.70;99.90;;;;;;4975630;28;8840;-60
2022/10/28 02:06:33;;;;;;;;;0.75;0.75;21.70;99.90;;;;;;4989066;28;8860;-60
2022/10/28 02:09:19;;;;;;;;;0.00;0.00;21.70;99.90;;;;;;5016065;28;8890;-59
2022/10/28 02:12:23;;;;;;;;;1.00;1.00;21.70;99.90;;;;;;4997366;28;8856;-61
2022/10/28 02:15:26;;;;;;;;;0.00;0.00;21.50;99.90;;;;;;5012871;28;8859;-61
2022/10/28 02:18:23;;;;;;;;;1.00;1.00;21.50;99.90;;;;;;4995579;28;9588;-65
2022/10/28 02:21:14;;;;;;;;;1.00;1.00;21.50;99.90;;;;;;5011455;28;8859;-66
2022/10/28 02:24:14;;;;;;;;;1.00;1.00;21.60;99.90;;;;;;5012352;28;8867;-67
2022/10/28 02:27:18;;;;;;;;;1.00;1.00;21.50;99.90;;;;;;5012348;28;8975;-60
2022/10/28 02:30:01;;;;;;;;;1.00;1.00;21.40;99.90;;;;;;4992907;28;8872;-60
2022/10/28 02:32:37;;;;;;;;;0.50;0.50;21.40;99.90;;;;;;5016920;28;8848;-62
2022/10/28 02:35:29;;;;;;;;;2.00;2.00;21.30;99.90;;;;;;5012508;28;8835;-65
2022/10/28 02:38:08;;;;;;;;;1.00;1.00;21.30;99.90;;;;;;5015982;28;8875;-66
2022/10/28 02:40:40;;;;;;;;;0.25;0.25;21.40;99.90;;;;;;5011899;28;8834;-65
2022/10/28 02:43:14;;;;;;;;;0.25;0.25;21.40;99.90;;;;;;4999009;28;8869;-67
2022/10/28 02:45:51;;;;;;;;;1.00;1.00;21.30;99.90;;;;;;5010814;28;8835;-67
2022/10/28 02:48:44;;;;;;;;;0.75;0.75;21.30;99.90;;;;;;5019091;28;8863;-68
2022/10/28 02:51:46;;;;;;;;;1.00;1.00;21.30;99.90;;;;;;5015511;28;8844;-62
2022/10/28 02:54:32;;;;;;;;;2.00;2.00;21.30;99.90;;;;;;5011267;28;8847;-60
2022/10/28 02:57:20;;;;;;;;;1.00;1.00;21.20;99.90;;;;;;5013852;28;8843;-61
2022/10/28 03:00:01;;;;;;;;;0.75;0.75;21.20;99.90;;;;;;5012992;28;8867;-60
2022/10/28 03:02:33;;;;;;;;;1.00;1.00;21.20;99.90;;;;;;5015202;28;8857;-61
2022/10/28 03:05:08;;;;;;;;;1.00;1.00;21.20;99.90;;;;;;5029012;28;8863;-65
2022/10/28 03:07:40;;;;;;;;;1.00;1.00;21.20;99.90;;;;;;5018100;28;8847;-67
2022/10/28 03:10:19;;;;;;;;;1.75;1.75;21.20;99.90;;;;;;5036490;28;8859;-61
2022/10/28 03:12:58;;;;;;;;;1.50;1.50;21.20;99.90;;;;;;5034274;28;8878;-61
2022/10/28 03:15:30;;;;;;;;;1.00;1.00;21.20;99.90;;;;;;5019374;28;8850;-60
2022/10/28 03:18:02;;;;;;;;;2.00;2.00;21.30;99.90;;;;;;5015974;28;8858;-61
2022/10/28 03:20:31;;;;;;;;;1.00;1.00;21.20;99.90;;;;;;4996814;28;8857;-61
2022/10/28 03:23:04;;;;;;;;;1.00;1.00;21.20;99.90;;;;;;5012628;28;8874;-61
2022/10/28 03:25:37;;;;;;;;;1.25;1.25;21.20;99.90;;;;;;5019612;28;8835;-65
2022/10/28 03:28:07;;;;;;;;;1.00;1.00;21.30;99.90;;;;;;5008620;28;8851;-67
2022/10/28 03:30:40;;;;;;;;;2.25;1.75;21.30;99.90;;;;;;5012172;28;8893;-66
2022/10/28 03:33:12;;;;;;;;;1.00;1.00;21.20;99.90;;;;;;5013001;28;8871;-67
2022/10/28 03:35:45;;;;;;;;;1.00;1.00;21.20;99.90;;;;;;4998053;28;8836;-65
2022/10/28 03:38:16;;;;;;;;;3.00;1.00;21.20;99.90;;;;;;5003668;28;8856;-66
2022/10/28 03:40:51;;;;;;;;;0.00;0.00;21.10;99.90;;;;;;4992451;28;8887;-59
2022/10/28 03:43:22;;;;;;;;;0.75;0.75;21.10;99.90;;;;;;5002362;28;8863;-60
2022/10/28 03:45:55;;;;;;;;;1.00;1.00;21.00;99.90;;;;;;4978478;28;9530;-68
2022/10/28 03:48:25;;;;;;;;;1.00;1.00;21.00;99.90;;;;;;5005594;28;8862;-69
2022/10/28 03:50:57;;;;;;;;;1.75;1.75;21.00;99.90;;;;;;4992753;28;8836;-67
2022/10/28 03:53:29;;;;;;;;;1.00;1.00;21.00;99.90;;;;;;5021303;28;8885;-67
2022/10/28 03:56:01;;;;;;;;;0.00;0.00;20.90;99.90;;;;;;4994487;28;9114;-67
2022/10/28 03:58:41;;;;;;;;;0.00;0.00;20.90;99.90;;;;;;5012585;28;8937;-67
2022/10/28 04:01:14;;;;;;;;;1.00;1.00;20.90;99.90;;;;;;5016516;28;8895;-59
2022/10/28 04:03:44;;;;;;;;;1.75;1.75;20.80;99.90;;;;;;5013794;28;8831;-59
2022/10/28 04:06:15;;;;;;;;;1.25;1.25;20.90;99.90;;;;;;5013252;28;8878;-58
2022/10/28 04:08:48;;;;;;;;;1.00;1.00;20.90;99.90;;;;;;5013712;28;8862;-62
2022/10/28 04:11:22;;;;;;;;;1.00;1.00;20.80;99.90;;;;;;4993167;28;8851;-66
2022/10/28 04:13:54;;;;;;;;;0.25;0.25;20.80;99.90;;;;;;5012969;28;8868;-68
2022/10/28 04:16:26;;;;;;;;;1.00;1.00;20.80;99.90;;;;;;5018691;28;8874;-68
2022/10/28 04:18:56;;;;;;;;;1.00;1.00;20.80;99.90;;;;;;5033872;28;8859;-69
2022/10/28 04:21:27;;;;;;;;;1.00;1.00;20.80;99.90;;;;;;5021555;28;8845;-68
2022/10/28 04:24:02;;;;;;;;;1.00;1.00;20.80;99.90;;;;;;5003350;28;8865;-68
2022/10/28 04:26:35;;;;;;;;;1.25;1.25;20.70;99.90;;;;;;5014368;28;8854;-58
2022/10/28 04:29:06;;;;;;;;;0.75;0.75;20.70;99.90;;;;;;4992989;28;8872;-58
2022/10/28 04:31:39;;;;;;;;;1.50;1.50;20.70;99.90;;;;;;4994186;28;8860;-69
2022/10/28 04:34:13;;;;;;;;;1.75;1.75;20.60;99.90;;;;;;5014998;28;8839;-68
2022/10/28 04:36:43;;;;;;;;;2.00;2.00;20.60;99.90;;;;;;4996113;28;8885;-68
2022/10/28 04:39:19;;;;;;;;;1.25;1.25;20.60;99.90;;;;;;5000375;28;8822;-68
2022/10/28 04:41:51;;;;;;;;;1.00;1.00;20.60;99.90;;;;;;5014504;28;9576;-68
2022/10/28 04:44:20;;;;;;;;;2.00;2.00;20.60;99.90;;;;;;4996623;28;8998;-68
2022/10/28 04:46:55;;;;;;;;;1.00;1.00;20.50;99.90;;;;;;5012911;28;8843;-59
2022/10/28 04:49:27;;;;;;;;;2.00;2.00;20.50;99.90;;;;;;4978204;28;8896;-59
2022/10/28 04:51:59;;;;;;;;;1.00;1.00;20.50;99.90;;;;;;5032321;28;8871;-58
2022/10/28 04:54:33;;;;;;;;;1.00;1.00;20.40;99.90;;;;;;4994662;28;8832;-58
2022/10/28 04:57:03;;;;;;;;;2.00;2.00;20.40;99.90;;;;;;5008514;28;8849;-67
2022/10/28 04:59:36;;;;;;;;;1.00;1.00;20.40;99.90;;;;;;5015598;28;8851;-68
2022/10/28 05:02:07;;;;;;;;;1.25;1.25;20.40;99.90;;;;;;4998412;28;8879;-68
2022/10/28 05:04:39;;;;;;;;;1.75;1.75;20.30;99.90;;;;;;4995084;28;8836;-68
2022/10/28 05:07:11;;;;;;;;;1.00;1.00;20.30;99.90;;;;;;4987792;28;8868;-60
2022/10/28 05:09:46;;;;;;;;;1.00;1.00;20.20;99.90;;;;;;4990788;28;8868;-60
2022/10/28 05:12:18;;;;;;;;;3.00;2.00;20.20;99.90;;;;;;4988570;28;8838;-68
2022/10/28 05:14:49;;;;;;;;;1.00;1.00;20.20;99.90;;;;;;4990308;28;8893;-68
2022/10/28 05:17:23;;;;;;;;;0.50;0.50;20.30;99.90;;;;;;5006156;28;8851;-68
2022/10/28 05:20:05;;;;;;;;;1.75;1.75;20.30;99.90;;;;;;4992838;28;8895;-66
2022/10/28 05:22:36;;;;;;;;;1.00;1.00;20.40;99.90;;;;;;5007601;28;8852;-67
2022/10/28 05:25:10;;;;;;;;;2.00;2.00;20.40;99.90;;;;;;5007800;28;9006;-67
2022/10/28 05:27:41;;;;;;;;;2.00;1.00;20.40;99.90;;;;;;4974227;28;9021;-65
2022/10/28 05:30:15;;;;;;;;;2.00;2.00;20.30;99.90;;;;;;4985517;28;8848;-59
2022/10/28 05:32:47;;;;;;;;;2.00;2.00;20.20;99.90;;;;;;4994126;28;8894;-59
2022/10/28 05:35:22;;;;;;;;;2.50;2.50;20.20;99.90;;;;;;4995991;28;8858;-60
2022/10/28 05:37:56;;;;;;;;;1.00;1.00;20.20;99.90;;;;;;4994584;28;8862;-59
2022/10/28 05:40:27;;;;;;;;;0.00;0.00;20.00;99.90;;;;;;4992094;28;8866;-59
2022/10/28 05:43:00;;;;;;;;;1.25;1.25;20.00;99.90;;;;;;4976515;28;8881;-60
2022/10/28 05:45:30;;;;;;;;;1.50;1.50;20.10;99.90;;;;;;4972712;28;8856;-59
2022/10/28 05:48:05;;;;;;;;;2.25;2.00;20.00;99.90;;;;;;4991748;28;8866;-67
2022/10/28 05:50:36;;;;;;;;;1.25;1.25;20.10;99.90;;;;;;4977670;28;8896;-59
2022/10/28 05:53:08;;;;;;;;;1.75;1.75;20.10;99.90;;;;;;5009040;28;8863;-62
2022/10/28 05:55:41;;;;;;;;;1.00;1.00;20.00;99.90;;;;;;4992953;28;8848;-68
2022/10/28 05:58:16;;;;;;;;;0.75;0.75;20.00;99.90;;;;;;4991623;28;8840;-68
2022/10/28 06:00:50;;;;;;;;;1.75;1.75;20.00;99.90;;;;;;4991723;28;8891;-60
2022/10/28 06:03:21;;;;;;;;;0.75;0.75;19.90;99.90;;;;;;4991218;28;8910;-60
2022/10/28 06:05:59;;;;;;;;;1.25;1.25;19.90;99.90;;;;;;4989545;28;8905;-68
2022/10/28 06:08:33;;;;;;;;;1.75;1.75;19.90;99.90;;;;;;5017503;28;8848;-68
2022/10/28 06:11:07;;;;;;;;;2.00;2.00;19.90;99.90;;;;;;4998142;28;8855;-60
2022/10/28 06:13:36;;;;;;;;;2.00;2.00;19.90;99.90;;;;;;5017485;28;8882;-60
2022/10/28 06:16:09;;;;;;;;;1.25;1.25;19.80;99.90;;;;;;5000480;28;9536;-67
2022/10/28 06:18:39;;;;;;;;;2.00;2.00;19.80;99.90;;;;;;5032501;28;8847;-69
2022/10/28 06:21:12;;;;;;;;;2.00;2.00;19.80;99.90;;;;;;4998541;28;9581;-71
2022/10/28 06:23:45;;;;;;;;;3.00;3.00;19.80;99.90;;;;;;5020158;28;8859;-70
2022/10/28 06:26:17;;;;;;;;;2.00;2.00;19.80;99.90;;;;;;5033936;28;8877;-68
2022/10/28 06:28:55;;;;;;;;;4.75;2.00;19.80;99.90;;;;;;5015628;28;8848;-70
2022/10/28 06:31:25;;;;;;;;;2.00;2.00;19.80;99.90;;;;;;4998095;28;9558;-58
2022/10/28 06:33:57;;;;;;;;;1.75;1.75;19.80;99.90;;;;;;5013389;28;8854;-58
2022/10/28 06:36:28;;;;;;;;;3.50;2.00;19.80;99.90;;;;;;5021818;28;8844;-58
2022/10/28 06:39:00;;;;;;;;;1.00;1.00;19.80;99.90;;;;;;5022446;28;8867;-59
2022/10/28 06:41:31;;;;;;;;;2.00;2.00;19.80;99.90;;;;;;5017085;28;8862;-59
2022/10/28 06:44:04;;;;;;;;;2.00;2.00;19.80;99.90;;;;;;5018452;28;8890;-59
2022/10/28 06:46:38;;;;;;;;;2.25;2.25;19.80;99.90;;;;;;5019463;28;9590;-68
2022/10/28 06:49:10;;;;;;;;;3.25;3.25;19.90;99.90;;;;;;5013291;28;8855;-68
2022/10/28 06:51:43;;;;;;;;;3.00;3.00;19.90;99.90;;;;;;4979327;28;8994;-67
2022/10/28 06:54:13;;;;;;;;;2.00;2.00;19.80;99.90;;;;;;5010715;28;8847;-68
2022/10/28 06:56:51;;;;;;;;;2.75;2.75;19.80;99.90;;;;;;5008206;28;8846;-68
2022/10/28 06:59:21;;;;;;;;;2.00;2.00;19.80;99.90;;;;;;4997684;28;8851;-68
2022/10/28 07:01:52;;;;;;;;;3.00;3.00;19.80;99.90;;;;;;5009689;28;8871;-67
2022/10/28 07:04:25;;;;;;;;;2.75;2.75;19.70;99.90;;;;;;5010957;28;8835;-68
2022/10/28 07:06:58;;;;;;;;;3.00;3.00;19.80;99.90;;;;;;5009879;28;8859;-59
2022/10/28 07:09:32;;;;;;;;;3.75;3.75;19.80;99.90;;;;;;4992775;28;8886;-59
2022/10/28 07:12:02;;;;;;;;;3.75;3.75;19.80;99.90;;;;;;5008954;28;8900;-59
2022/10/28 07:14:40;;;;;;;;;3.00;3.00;19.80;99.90;;;;;;5005622;28;8883;-59
2022/10/28 07:17:10;;;;;;;;;2.75;2.75;19.80;99.90;;;;;;5004760;28;8866;-59
2022/10/28 07:19:44;;;;;;;;;3.00;3.00;19.80;99.90;;;;;;5011797;28;8808;-59
2022/10/28 07:22:15;;;;;;;;;2.75;2.75;19.70;99.90;;;;;;5016431;28;8847;-68
2022/10/28 07:24:45;;;;;;;;;4.25;3.00;19.80;99.90;;;;;;5012081;28;9643;-69
2022/10/28 07:27:20;;;;;;;;;2.75;2.75;19.70;99.90;;;;;;5015182;28;8841;-68
2022/10/28 07:29:51;;;;;;;;;3.00;3.00;19.60;99.90;;;;;;5029590;28;9567;-68
2022/10/28 07:32:23;;;;;;;;;2.00;2.00;19.60;99.90;;;;;;5013899;28;8895;-68
2022/10/28 07:34:56;;;;;;;;;4.00;4.00;19.60;99.90;;;;;;5001561;28;8833;-68
2022/10/28 07:37:27;;;;;;;;;3.00;3.00;19.60;99.90;;;;;;5015808;28;8848;-58
2022/10/28 07:40:01;;;;;;;;;2.00;2.00;19.70;99.90;;;;;;5011453;28;8839;-59
2022/10/28 07:42:33;;;;;;;;;4.00;4.00;19.70;99.90;;;;;;4979737;28;8840;-60
2022/10/28 07:45:05;;;;;;;;;3.75;3.75;19.70;99.90;;;;;;4993744;28;8852;-59
2022/10/28 07:47:43;;;;;;;;;3.25;3.25;19.70;99.90;;;;;;5009874;28;8893;-68
2022/10/28 07:50:15;;;;;;;;;4.00;4.00;19.60;99.90;;;;;;5004955;28;8875;-67
2022/10/28 07:52:48;;;;;;;;;4.25;4.25;19.50;99.90;;;;;;5008060;28;8851;-67
2022/10/28 07:55:20;;;;;;;;;6.50;5.00;19.50;99.90;;;;;;5010194;28;8854;-67
2022/10/28 07:57:52;;;;;;;;;4.25;4.25;19.60;99.90;;;;;;5005948;28;8943;-66
2022/10/28 08:00:25;;;;;;;;;0.00;0.00;19.50;99.90;;;;;;5014682;28;8886;-68
2022/10/28 08:02:58;;;;;;;;;1.00;1.00;19.40;99.90;;;;;;4998561;28;8886;-67
2022/10/28 08:05:29;;;;;;;;;4.00;4.00;19.40;99.90;;;;;;4976944;28;8859;-60
2022/10/28 08:08:01;;;;;;;;;3.00;3.00;19.50;99.90;;;;;;5007244;28;8876;-61
2022/10/28 08:10:37;;;;;;;;;3.00;3.00;19.50;99.90;;;;;;4998044;28;8858;-68
2022/10/28 08:13:11;;;;;;;;;6.00;6.00;19.40;99.90;;;;;;5006493;28;8852;-68
2022/10/28 08:15:42;;;;;;;;;4.25;4.25;19.50;99.90;;;;;;5009999;28;8885;-60
2022/10/28 08:18:13;;;;;;;;;6.00;6.00;19.50;99.90;;;;;;5022682;28;8890;-59
2022/10/28 08:20:48;;;;;;;;;2.25;2.25;19.50;99.90;;;;;;4994092;28;8914;-58
2022/10/28 08:23:20;;;;;;;;;3.00;3.00;19.60;99.90;;;;;;4996517;28;8851;-68
2022/10/28 08:25:51;;;;;;;;;3.75;3.75;19.50;99.90;;;;;;5002831;28;9351;-67
2022/10/28 08:28:23;;;;;;;;;6.00;4.00;19.50;99.90;;;;;;4989760;28;8923;-69
2022/10/28 08:31:02;;;;;;;;;6.00;6.00;19.40;99.90;;;;;;4973038;28;8839;-60
2022/10/28 08:33:44;;;;;;;;;6.25;6.25;19.40;99.90;;;;;;4986805;28;8897;-58
2022/10/28 08:36:18;;;;;;;;;3.50;3.50;19.50;99.90;;;;;;5003789;28;8831;-68
2022/10/28 08:38:49;;;;;;;;;3.50;3.50;19.50;99.90;;;;;;5003375;28;9450;-60
2022/10/28 08:41:48;;;;;;;;;5.00;5.00;19.40;99.90;;;;;;4996837;28;9642;-69
2022/10/28 08:44:42;;;;;;;;;5.00;5.00;19.40;99.90;;;;;;5009831;28;8870;-68
2022/10/28 08:47:20;;;;;;;;;4.25;4.25;19.40;99.90;;;;;;5013190;28;8847;-67
2022/10/28 08:50:01;;;;;;;;;4.50;4.50;19.40;99.90;;;;;;5012096;28;8839;-67
2022/10/28 08:53:24;;;;;;;;;5.00;5.00;19.40;99.90;;;;;;4996003;28;8847;-60
2022/10/28 08:56:05;;;;;;;;;5.00;5.00;19.40;99.90;;;;;;5009643;28;10408;-69
2022/10/28 08:58:44;;;;;;;;;4.75;4.75;19.40;99.90;;;;;;5010063;28;10335;-68
2022/10/28 09:01:38;;;;;;;;;5.25;5.25;19.40;99.90;;;;;;4998972;28;8883;-68
2022/10/28 09:04:41;;;;;;;;;5.50;5.50;19.40;99.90;;;;;;4993212;28;9653;-67
2022/10/28 09:07:33;;;;;;;;;3.00;3.00;19.40;99.90;;;;;;4981419;28;8872;-67
2022/10/28 09:10:06;;;;;;;;;5.25;5.25;19.40;99.90;;;;;;4976371;28;8836;-69
2022/10/28 09:12:41;;;;;;;;;5.00;5.00;19.40;99.90;;;;;;4979994;28;8848;-67
2022/10/28 09:15:50;;;;;;;;;6.00;6.00;19.40;99.90;;;;;;4979329;28;9610;-68
2022/10/28 09:18:49;;;;;;;;;5.00;5.00;19.40;99.90;;;;;;4981802;28;8872;-66
2022/10/28 09:21:50;;;;;;;;;6.00;6.00;19.40;99.90;;;;;;4975363;28;8856;-60
2022/10/28 09:24:52;;;;;;;;;5.75;5.75;19.40;99.90;;;;;;4973249;28;9041;-58
2022/10/28 09:27:53;;;;;;;;;2.00;2.00;19.40;99.90;;;;;;4971716;28;8852;-68
2022/10/28 09:30:50;;;;;;;;;4.75;4.75;19.40;99.90;;;;;;4973877;28;8901;-67
2022/10/28 09:33:42;;;;;;;;;5.00;5.00;19.30;99.90;;;;;;4973479;28;8882;-66
2022/10/28 09:36:40;;;;;;;;;2.25;2.25;19.30;99.90;;;;;;4972286;28;8875;-67
2022/10/28 09:39:34;;;;;;;;;4.25;4.25;19.30;99.90;;;;;;4989010;28;8892;-68
2022/10/28 09:42:12;;;;;;;;;4.50;4.50;19.30;99.90;;;;;;4973700;28;8859;-58
2022/10/28 09:44:54;;;;;;;;;5.25;5.25;19.30;99.90;;;;;;4974052;28;8852;-59
2022/10/28 09:47:31;;;;;;;;;6.75;6.75;19.30;99.90;;;;;;4977193;28;8853;-68
2022/10/28 09:50:07;;;;;;;;;4.75;4.75;19.30;99.90;;;;;;4960942;28;8856;-68
2022/10/28 09:53:08;;;;;;;;;5.00;5.00;19.20;99.90;;;;;;4959777;28;8860;-61
2022/10/28 09:55:39;;;;;;;;;5.00;5.00;19.20;99.90;;;;;;4973571;28;8867;-59
2022/10/28 09:58:14;;;;;;;;;5.75;5.75;19.30;99.90;;;;;;4969216;28;8848;-59
2022/10/28 10:00:46;;;;;;;;;4.75;4.75;19.20;99.90;;;;;;4939570;28;9828;-58
2022/10/28 10:03:17;;;;;;;;;5.00;5.00;19.20;99.90;;;;;;4976717;28;8895;-60
2022/10/28 10:05:51;;;;;;;;;5.00;5.00;19.20;99.90;;;;;;4971884;28;8829;-67
2022/10/28 10:08:22;;;;;;;;;4.00;4.00;19.20;99.90;;;;;;4971615;28;9352;-69
2022/10/28 10:11:27;;;;;;;;;2.00;2.00;19.20;99.90;;;;;;4976076;28;8878;-59
2022/10/28 10:14:03;;;;;;;;;5.25;5.25;19.20;99.90;;;;;;4972777;28;8852;-58
2022/10/28 10:17:00;;;;;;;;;3.25;3.25;19.10;99.90;;;;;;4990541;28;8976;-68
2022/10/28 10:19:59;;;;;;;;;4.00;4.00;19.10;99.90;;;;;;4972310;28;8879;-68
2022/10/28 10:22:42;;;;;;;;;4.50;4.50;19.10;99.90;;;;;;4990892;28;8894;-67
2022/10/28 10:25:18;;;;;;;;;5.00;5.00;19.10;99.90;;;;;;4969240;28;9021;-60
2022/10/28 10:28:00;;;;;;;;;5.00;5.00;19.10;99.90;;;;;;4977799;28;8848;-59
2022/10/28 10:30:48;;;;;;;;;4.75;4.75;19.00;99.90;;;;;;4983844;28;8986;-59
2022/10/28 10:33:29;;;;;;;;;4.00;4.00;19.10;99.90;;;;;;4980336;28;9659;-60
2022/10/28 10:36:12;;;;;;;;;5.00;5.00;19.10;99.90;;;;;;4985752;28;8880;-67
2022/10/28 10:38:53;;;;;;;;;6.00;6.00;19.10;99.90;;;;;;4974544;28;8840;-67
2022/10/28 10:41:39;;;;;;;;;6.00;6.00;19.00;99.90;;;;;;4974175;28;8844;-68
2022/10/28 10:44:21;;;;;;;;;4.00;4.00;19.00;99.90;;;;;;4966924;28;8875;-68
2022/10/28 10:47:02;;;;;;;;;5.25;5.25;18.90;99.90;;;;;;4974610;28;9060;-68
2022/10/28 10:49:35;;;;;;;;;4.00;4.00;19.00;99.90;;;;;;4971059;28;9582;-66
2022/10/28 10:52:18;;;;;;;;;6.50;6.50;18.90;99.90;;;;;;4970743;28;8951;-68
2022/10/28 10:55:04;;;;;;;;;5.00;5.00;19.00;99.90;;;;;;4986016;28;8844;-68
2022/10/28 10:57:36;;;;;;;;;4.00;4.00;18.90;99.90;;;;;;4972888;28;8879;-68
2022/10/28 11:00:22;;;;;;;;;5.00;5.00;18.80;99.90;;;;;;4974178;28;8898;-58
2022/10/28 11:02:56;;;;;;;;;6.00;6.00;18.80;99.90;;;;;;4970629;28;9043;-58
2022/10/28 11:05:32;;;;;;;;;5.00;5.00;18.90;99.90;;;;;;4974523;28;9018;-67
2022/10/28 11:08:16;;;;;;;;;5.00;5.00;18.90;99.90;;;;;;4973483;28;10707;-67
2022/10/28 11:11:06;;;;;;;;;7.00;5.00;18.90;99.90;;;;;;4973248;28;8918;-59
2022/10/28 11:13:37;;;;;;;;;5.25;5.25;19.00;99.90;;;;;;4986763;28;8879;-67
2022/10/28 11:16:21;;;;;;;;;4.67;4.67;18.90;99.90;;;;;;4968218;28;8885;-67
2022/10/28 11:18:55;;;;;;;;;5.00;5.00;18.80;99.90;;;;;;4974782;28;9046;-66
2022/10/28 11:21:53;;;;;;;;;6.00;6.00;18.90;99.90;;;;;;4970122;28;8875;-66
2022/10/28 11:25:01;;;;;;;;;5.00;5.00;18.90;99.90;;;;;;4967877;28;8946;-67
2022/10/28 11:27:50;;;;;;;;;6.50;6.50;18.90;99.90;;;;;;4970934;28;8930;-59
2022/10/28 11:30:56;;;;;;;;;5.00;5.00;18.80;99.90;;;;;;4976321;28;8871;-68
2022/10/28 11:33:57;;;;;;;;;6.00;6.00;18.80;99.90;;;;;;4975864;28;8848;-67
2022/10/28 11:36:35;;;;;;;;;5.50;5.50;18.80;99.90;;;;;;4961855;28;9019;-67
2022/10/28 11:39:23;;;;;;;;;5.00;5.00;18.80;99.90;;;;;;4976295;28;8862;-68
2022/10/28 11:42:18;;;;;;;;;5.33;5.33;18.90;99.90;;;;;;4969035;28;8972;-59
2022/10/28 11:45:05;;;;;;;;;8.67;8.67;18.80;99.90;;;;;;4976737;28;9041;-59
2022/10/28 11:47:51;;;;;;;;;6.00;6.00;18.80;99.90;;;;;;4972003;28;9026;-67
2022/10/28 11:50:31;;;;;;;;;6.00;6.00;18.80;99.90;;;;;;4978475;28;8855;-57
2022/10/28 11:53:19;;;;;;;;;6.33;6.33;18.80;99.90;;;;;;4972787;28;9066;-59
2022/10/28 11:56:00;;;;;;;;;6.00;6.00;18.80;99.90;;;;;;4973401;28;8988;-67
2022/10/28 11:59:08;;;;;;;;;6.00;6.00;18.80;99.90;;;;;;4972015;28;9027;-68
2022/10/28 12:02:22;;;;;;;;;7.25;7.25;18.70;99.90;;;;;;4972274;28;9175;-60
2022/10/28 12:05:09;;;;;;;;;5.75;5.75;18.80;99.90;;;;;;4963744;28;8880;-59
2022/10/28 12:08:10;;;;;;;;;4.00;4.00;18.90;99.90;;;;;;4969717;28;8864;-59
2022/10/28 12:10:55;;;;;;;;;3.33;3.33;18.80;99.90;;;;;;4993746;28;8975;-70
2022/10/28 12:13:33;;;;;;;;;6.33;6.33;18.80;99.90;;;;;;4976687;28;9015;-69
2022/10/28 12:16:34;;;;;;;;;5.67;5.67;18.80;99.90;;;;;;4976883;28;9127;-61
2022/10/28 12:19:33;;;;;;;;;6.00;6.00;18.80;99.90;;;;;;4974997;28;9753;-59
2022/10/28 12:22:22;;;;;;;;;7.67;7.67;18.80;99.90;;;;;;4974541;28;8928;-68
2022/10/28 12:24:55;;;;;;;;;8.67;8.67;18.80;99.90;;;;;;4976217;28;9003;-66
2022/10/28 12:27:30;;;;;;;;;7.00;7.00;18.60;99.90;;;;;;4973866;28;9117;-60
2022/10/28 12:30:28;;;;;;;;;9.33;8.00;18.50;99.90;;;;;;4976769;28;9023;-60
2022/10/28 12:33:16;;;;;;;;;6.25;6.25;18.60;99.90;;;;;;4979791;28;9201;-67
2022/10/28 12:36:11;;;;;;;;;7.00;7.00;18.60;99.90;;;;;;4983777;28;8864;-60
2022/10/28 12:38:57;;;;;;;;;7.67;7.67;18.70;99.90;;;;;;4978226;28;9201;-60
2022/10/28 12:42:04;;;;;;;;;8.00;8.00;18.60;99.90;;;;;;4979499;28;9096;-69
2022/10/28 12:44:40;;;;;;;;;12.33;12.33;18.50;99.90;;;;;;4979360;28;9258;-71
2022/10/28 12:47:35;;;;;;;;;12.00;12.00;18.20;99.90;;;;;;4982864;28;10276;-72
2022/10/28 12:50:34;;;;;;;;;9.00;9.00;18.10;99.90;;;;;;4982541;28;9538;-60
2022/10/28 12:53:04;;;;;;;;;7.00;7.00;17.90;99.90;;;;;;4978667;28;9467;-61
2022/10/28 12:56:00;;;;;;;;;7.67;7.00;17.80;99.90;;;;;;4982243;28;10249;-60
2022/10/28 12:58:47;;;;;;;;;4.33;4.33;17.90;99.90;;;;;;4979335;28;9400;-60
2022/10/28 13:01:23;;;;;;;;;6.00;6.00;17.70;99.90;;;;;;4979420;28;9104;-70
2022/10/28 13:03:57;;;;;;;;;5.33;5.33;17.50;99.90;;;;;;4992045;28;9346;-69
2022/10/28 13:07:01;;;;;;;;;5.67;5.67;17.50;99.90;;;;;;4986429;28;9515;-71
2022/10/28 13:09:42;;;;;;;;;5.00;5.00;17.70;99.90;;;;;;5012341;28;10824;-68
2022/10/28 13:12:42;;;;;;;;;4.00;4.00;18.00;99.90;;;;;;5017762;28;8984;-61
2022/10/28 13:15:25;;;;;;;;;4.00;4.00;18.10;99.90;;;;;;5015685;28;9332;-61
2022/10/28 13:18:19;;;;;;;;;3.00;3.00;18.00;99.90;;;;;;5017280;28;9095;-60
2022/10/28 13:21:06;;;;;;;;;4.67;4.67;18.00;99.90;;;;;;5028282;28;9992;-61
2022/10/28 13:24:00;;;;;;;;;5.00;5.00;18.00;99.90;;;;;;4998523;28;8999;-59
2022/10/28 13:26:40;;;;;;;;;5.00;5.00;18.00;99.90;;;;;;5018832;28;9013;-69
2022/10/28 13:29:25;;;;;;;;;5.00;5.00;18.20;99.90;;;;;;5032246;28;9091;-70
2022/10/28 13:31:57;;;;;;;;;7.00;7.00;18.10;99.90;;;;;;5015603;28;9184;-70
2022/10/28 13:34:39;;;;;;;;;4.67;4.67;18.10;99.90;;;;;;5022718;28;9097;-70
2022/10/28 13:37:19;;;;;;;;;5.00;5.00;17.90;99.90;;;;;;5012655;28;9030;-60
2022/10/28 13:39:51;;;;;;;;;6.33;6.33;18.00;99.90;;;;;;5014471;28;9299;-60
2022/10/28 13:42:25;;;;;;;;;5.33;5.33;18.00;99.90;;;;;;4999976;28;9234;-61
2022/10/28 13:44:59;;;;;;;;;4.67;4.67;18.10;99.90;;;;;;5015184;28;9269;-60
2022/10/28 13:47:35;;;;;;;;;5.67;5.67;18.00;99.90;;;;;;5030114;28;9331;-70
2022/10/28 13:50:06;;;;;;;;;7.00;7.00;18.00;99.90;;;;;;4996707;28;9296;-68
2022/10/28 13:52:37;;;;;;;;;5.67;5.67;18.00;99.90;;;;;;5014701;28;9254;-61
2022/10/28 13:55:26;;;;;;;;;4.67;3.33;17.90;99.90;;;;;;5016196;28;9245;-60
2022/10/28 13:58:18;;;;;;;;;3.00;3.00;17.90;99.90;;;;;;4994045;28;9001;-59
2022/10/28 14:00:49;;;;;;;;;4.67;4.67;17.90;99.90;;;;;;5014457;28;9061;-60
2022/10/28 14:03:30;;;;;;;;;3.00;3.00;17.80;99.90;;;;;;5016784;28;9658;-59